Time;durP1;ratioP1;P1;durP2;ratioP2;P2;SDS_P1;SDS_P2;PMS_P1;PMS_P2;Temp;Humidity;BMP_temperature;BMP_pressure;BME280_temperature;BME280_humidity;BME280_pressure;Samples;Min_cycle;Max_cycle;Signal;HPM_P1;HPM_P2
2023/12/05 00:01:40;;;;;;;122.05;51.00;;;;;;;-8.50;87.06;100683.05;1732619;82;26418;-57
2023/12/05 00:04:06;;;;;;;107.47;46.05;;;;;;;-8.51;86.88;100679.62;1732547;82;25605;-53
2023/12/05 00:06:33;;;;;;;104.50;47.05;;;;;;;-8.54;86.89;100672.59;1673009;85;27954;-52
2023/12/05 00:09:00;;;;;;;116.05;48.55;;;;;;;-8.54;87.05;100674.71;1732367;82;25620;-53
2023/12/05 00:11:27;;;;;;;116.25;48.95;;;;;;;-8.54;87.03;100673.40;1732585;81;25625;-54
2023/12/05 00:13:54;;;;;;;107.60;45.43;;;;;;;-8.54;87.08;100676.53;1732809;81;25704;-54
2023/12/05 00:16:20;;;;;;;117.37;47.17;;;;;;;-8.54;87.34;100667.34;1668393;85;25585;-52
2023/12/05 00:18:49;;;;;;;126.62;50.25;;;;;;;-8.52;87.68;100670.09;1687181;85;27213;-51
2023/12/05 00:21:17;;;;;;;119.72;50.40;;;;;;;-8.47;87.97;100668.27;1687304;85;25576;-55
2023/12/05 00:23:43;;;;;;;121.05;52.62;;;;;;;-8.43;88.25;100664.80;1687143;85;25580;-52
2023/12/05 00:26:10;;;;;;;122.70;52.50;;;;;;;-8.37;88.25;100674.08;1666222;85;26163;-51
2023/12/05 00:28:37;;;;;;;132.05;53.75;;;;;;;-8.35;88.06;100675.22;1674180;85;25735;-54
2023/12/05 00:31:04;;;;;;;115.65;52.78;;;;;;;-8.36;87.70;100669.16;1693744;83;28351;-51
2023/12/05 00:33:31;;;;;;;114.12;47.73;;;;;;;-8.39;87.49;100668.66;1689112;84;25637;-55
2023/12/05 00:35:58;;;;;;;108.45;44.93;;;;;;;-8.38;87.58;100665.87;1660448;86;25623;-55
2023/12/05 00:38:24;;;;;;;113.32;48.95;;;;;;;-8.37;87.70;100666.70;1688771;83;25627;-51
2023/12/05 00:40:51;;;;;;;118.67;49.00;;;;;;;-8.36;87.73;100661.77;1689401;85;25629;-54
2023/12/05 00:43:18;;;;;;;109.55;45.90;;;;;;;-8.36;87.68;100661.28;1661552;86;27260;-52
2023/12/05 00:45:44;;;;;;;111.80;48.63;;;;;;;-8.35;87.69;100659.47;1692414;84;25584;-54
2023/12/05 00:48:11;;;;;;;115.37;47.53;;;;;;;-8.35;87.62;100656.34;1640961;86;25449;-51
2023/12/05 00:50:38;;;;;;;115.50;48.30;;;;;;;-8.36;87.50;100653.41;1674628;85;25636;-56
2023/12/05 00:53:05;;;;;;;116.45;49.13;;;;;;;-8.36;87.40;100653.89;1741963;80;25374;-54
2023/12/05 00:55:31;;;;;;;109.42;46.92;;;;;;;-8.35;87.63;100653.72;1734395;82;28185;-53
2023/12/05 00:57:58;;;;;;;107.40;46.55;;;;;;;-8.34;87.64;100654.05;1733990;82;25686;-52
2023/12/05 01:00:24;;;;;;;99.07;42.85;;;;;;;-8.34;87.52;100655.84;1734805;82;25391;-53
2023/12/05 01:02:51;;;;;;;107.00;46.83;;;;;;;-8.35;87.71;100653.72;1734734;82;25950;-55
2023/12/05 01:05:18;;;;;;;98.90;43.02;;;;;;;-8.32;87.92;100655.99;1734783;82;25551;-53
2023/12/05 01:07:45;;;;;;;93.75;42.65;;;;;;;-8.31;88.12;100654.17;1734877;82;27182;-55
2023/12/05 01:10:12;;;;;;;105.92;46.20;;;;;;;-8.28;88.22;100657.27;1734705;82;25712;-54
2023/12/05 01:12:39;;;;;;;100.05;44.55;;;;;;;-8.27;88.19;100651.03;1713806;82;25640;-53
2023/12/05 01:15:08;;;;;;;98.97;41.60;;;;;;;-8.27;88.17;100645.78;1734736;82;25631;-53
2023/12/05 01:17:35;;;;;;;103.83;42.67;;;;;;;-8.24;88.33;100648.53;1734948;82;27521;-55
2023/12/05 01:20:07;;;;;;;98.58;41.20;;;;;;;-8.22;88.37;100642.64;1734815;82;27720;-55
2023/12/05 01:22:31;;;;;;;;;;;;;;;-8.20;88.41;100638.02;1736803;82;25735;-55
2023/12/05 01:24:58;;;;;;;99.70;40.48;;;;;;;-8.17;88.45;100636.83;1734831;82;25469;-56
2023/12/05 01:27:24;;;;;;;93.42;40.63;;;;;;;-8.16;88.64;100633.23;1735503;82;26137;-51
2023/12/05 01:29:52;;;;;;;99.50;42.50;;;;;;;-8.14;88.70;100624.20;1734818;82;25574;-52
2023/12/05 01:32:18;;;;;;;97.02;41.88;;;;;;;-8.12;88.66;100622.68;1734698;82;27329;-53
2023/12/05 01:34:46;;;;;;;103.35;42.30;;;;;;;-8.11;88.66;100613.82;1734692;82;25826;-52
2023/12/05 01:37:13;;;;;;;95.25;41.10;;;;;;;-8.09;88.65;100605.27;1734749;82;25608;-52
2023/12/05 01:39:39;;;;;;;100.25;41.95;;;;;;;-8.07;88.74;100608.05;1734712;82;25558;-53
2023/12/05 01:42:06;;;;;;;101.07;42.55;;;;;;;-8.05;88.72;100603.09;1734751;82;25450;-54
2023/12/05 01:44:32;;;;;;;99.72;43.92;;;;;;;-8.03;88.66;100605.07;1734738;82;27253;-54
2023/12/05 01:47:02;;;;;;;94.03;42.10;;;;;;;-8.03;88.64;100601.12;1734626;82;25658;-54
2023/12/05 01:49:33;;;;;;;92.02;42.03;;;;;;;-8.02;88.57;100606.17;1734796;82;25560;-54
2023/12/05 01:52:03;;;;;;;100.10;43.95;;;;;;;-8.00;88.58;100601.58;1734773;82;26012;-56
2023/12/05 01:54:34;;;;;;;107.00;44.50;;;;;;;-8.01;88.53;100590.75;1661724;86;25645;-55
2023/12/05 01:57:05;;;;;;;96.12;42.50;;;;;;;-7.99;88.49;100594.01;1696558;84;27354;-52
2023/12/05 01:59:35;;;;;;;106.17;42.23;;;;;;;-7.98;88.30;100594.34;1694884;84;25576;-53
2023/12/05 02:02:04;;;;;;;94.65;39.98;;;;;;;-8.00;88.20;100589.77;1687093;85;25585;-55
2023/12/05 02:04:34;;;;;;;94.85;38.83;;;;;;;-8.00;88.27;100587.14;1687180;85;25947;-55
2023/12/05 02:07:04;;;;;;;92.27;37.45;;;;;;;-8.01;88.41;100589.44;1687101;85;25475;-54
2023/12/05 02:09:32;;;;;;;87.50;37.88;;;;;;;-7.98;88.92;100585.14;1687101;85;27408;-52
2023/12/05 02:12:01;;;;;;;79.87;35.50;;;;;;;-7.94;89.07;100576.41;1687099;84;25883;-52
2023/12/05 02:14:28;;;;;;;83.33;37.98;;;;;;;-7.92;89.27;100575.72;1659766;86;25510;-53
2023/12/05 02:17:14;;;;;;;77.78;35.60;;;;;;;-7.87;89.44;100576.50;1686958;85;26619;-52
2023/12/05 02:19:49;;;;;;;80.30;34.78;;;;;;;-7.86;89.50;100571.58;1687203;85;25411;-52
2023/12/05 02:22:49;;;;;;;80.15;37.23;;;;;;;-7.82;89.50;100574.95;1660452;86;27257;-55
2023/12/05 02:25:46;;;;;;;82.40;34.83;;;;;;;-7.81;89.41;100569.23;1676567;85;25490;-52
2023/12/05 02:28:15;;;;;;;77.92;34.18;;;;;;;-7.78;89.47;100563.11;1681870;85;25572;-52
2023/12/05 02:30:41;;;;;;;76.53;35.95;;;;;;;-7.77;89.61;100563.41;1654477;86;25619;-55
2023/12/05 02:33:08;;;;;;;85.55;35.03;;;;;;;-7.75;89.68;100564.03;1734515;82;25648;-53
2023/12/05 02:35:37;;;;;;;78.10;34.65;;;;;;;-7.71;89.76;100571.89;1737570;82;27325;-52
2023/12/05 02:38:15;;;;;;;75.80;34.83;;;;;;;-7.68;89.77;100575.14;1737613;82;25691;-52
2023/12/05 02:41:19;;;;;;;72.32;33.20;;;;;;;-7.67;89.93;100571.53;1731849;82;25724;-52
2023/12/05 02:43:50;;;;;;;70.22;32.10;;;;;;;-7.65;89.97;100574.27;1737634;82;25634;-52
2023/12/05 02:46:20;;;;;;;75.83;33.92;;;;;;;-7.63;90.04;100570.95;1733960;82;25554;-55
2023/12/05 02:48:52;;;;;;;75.15;33.70;;;;;;;-7.60;90.05;100569.28;1737699;82;28131;-54
2023/12/05 02:51:20;;;;;;;76.33;34.90;;;;;;;-7.60;90.14;100560.09;1737592;82;25612;-53
2023/12/05 02:53:46;;;;;;;78.42;35.20;;;;;;;-7.56;90.18;100565.79;1737894;82;25435;-52
2023/12/05 02:56:16;;;;;;;79.92;34.50;;;;;;;-7.53;90.22;100566.75;1737451;82;25609;-53
2023/12/05 02:58:43;;;;;;;66.30;32.05;;;;;;;-7.52;90.26;100560.00;1737527;82;25402;-53
2023/12/05 03:01:10;;;;;;;79.62;36.17;;;;;;;-7.49;90.29;100557.52;1737500;82;28324;-54
2023/12/05 03:03:38;;;;;;;70.42;33.58;;;;;;;-7.45;90.26;100557.96;1737456;82;25618;-55
2023/12/05 03:06:08;;;;;;;79.87;36.28;;;;;;;-7.43;90.29;100578.30;1737555;82;25581;-53
2023/12/05 03:08:35;;;;;;;77.03;34.25;;;;;;;-7.42;90.28;100574.65;1737557;81;25597;-53
2023/12/05 03:11:01;;;;;;;72.12;34.30;;;;;;;-7.39;90.33;100573.81;1737533;82;25580;-56
2023/12/05 03:13:31;;;;;;;84.55;36.85;;;;;;;-7.40;90.19;100574.80;1737583;81;27481;-54
2023/12/05 03:15:58;;;;;;;78.47;35.33;;;;;;;-7.37;90.28;100574.91;1737410;82;25552;-56
2023/12/05 03:18:26;;;;;;;73.90;31.75;;;;;;;-7.36;90.33;100572.10;1737702;80;25377;-52
2023/12/05 03:20:53;;;;;;;73.78;34.58;;;;;;;-7.32;90.32;100568.61;1738043;82;26044;-53
2023/12/05 03:23:19;;;;;;;78.70;34.45;;;;;;;-7.28;90.38;100575.65;1737730;82;25405;-52
2023/12/05 03:25:46;;;;;;;66.22;33.00;;;;;;;-7.25;90.39;100573.94;1737677;82;27945;-52
2023/12/05 03:28:12;;;;;;;67.05;32.20;;;;;;;-7.23;90.36;100565.39;1672676;85;25640;-54
2023/12/05 03:30:39;;;;;;;72.15;35.00;;;;;;;-7.22;90.36;100569.16;1732641;82;25556;-53
2023/12/05 03:33:06;;;;;;;65.67;33.23;;;;;;;-7.19;90.35;100569.27;1710604;82;25720;-53
2023/12/05 03:35:32;;;;;;;74.00;35.30;;;;;;;-7.18;90.40;100563.83;1730232;82;25636;-53
2023/12/05 03:37:59;;;;;;;72.12;32.20;;;;;;;-7.15;90.42;100561.31;1730814;82;27043;-53
2023/12/05 03:40:25;;;;;;;68.17;33.92;;;;;;;-7.12;90.46;100552.25;1730767;82;25388;-52
2023/12/05 03:42:52;;;;;;;71.50;32.90;;;;;;;-7.10;90.46;100556.31;1732855;82;25450;-55
2023/12/05 03:45:18;;;;;;;70.40;32.10;;;;;;;-7.08;90.51;100551.70;1733138;82;26614;-56
2023/12/05 03:47:45;;;;;;;67.00;33.80;;;;;;;-7.05;90.53;100549.99;1734560;82;25532;-54
2023/12/05 03:50:13;;;;;;;62.90;31.07;;;;;;;-7.03;90.58;100548.49;1731794;82;27323;-54
2023/12/05 03:52:40;;;;;;;68.55;33.10;;;;;;;-7.02;90.64;100548.31;1732305;82;25562;-53
2023/12/05 03:55:09;;;;;;;67.58;33.53;;;;;;;-6.98;90.70;100545.64;1732400;82;25616;-53
2023/12/05 03:57:36;;;;;;;68.02;31.40;;;;;;;-6.95;90.72;100548.38;1735310;82;26032;-51
2023/12/05 04:00:06;;;;;;;67.22;31.75;;;;;;;-6.91;90.77;100540.45;1732872;81;25482;-54
2023/12/05 04:02:33;;;;;;;64.12;31.80;;;;;;;-6.88;90.82;100542.67;1734946;82;27332;-55
2023/12/05 04:05:04;;;;;;;65.50;31.45;;;;;;;-6.85;90.80;100536.23;1734709;82;25643;-55
2023/12/05 04:07:31;;;;;;;72.90;33.15;;;;;;;-6.81;90.80;100537.00;1708743;82;25245;-56
2023/12/05 04:09:58;;;;;;;67.82;32.28;;;;;;;-6.77;90.80;100533.48;1733765;82;25603;-56
2023/12/05 04:12:24;;;;;;;69.05;32.98;;;;;;;-6.74;90.83;100535.74;1727775;82;25711;-55
2023/12/05 04:14:51;;;;;;;67.20;33.20;;;;;;;-6.71;90.86;100535.34;1735856;82;27206;-55
2023/12/05 04:17:17;;;;;;;62.48;32.13;;;;;;;-6.67;90.90;100533.17;1708271;83;25641;-55
2023/12/05 04:19:44;;;;;;;58.35;31.27;;;;;;;-6.65;90.87;100525.39;1724427;82;25454;-56
2023/12/05 04:22:10;;;;;;;66.72;32.30;;;;;;;-6.62;90.88;100530.78;1735786;82;25548;-55
2023/12/05 04:24:38;;;;;;;63.68;32.88;;;;;;;-6.59;90.93;100530.38;1735104;82;25631;-54
2023/12/05 04:27:06;;;;;;;65.40;31.20;;;;;;;-6.56;91.02;100530.01;1734023;81;28396;-56
2023/12/05 04:29:35;;;;;;;63.95;31.45;;;;;;;-6.51;91.08;100536.02;1723119;82;25609;-56
2023/12/05 04:32:06;;;;;;;64.37;31.37;;;;;;;-6.49;91.13;100528.23;1725903;82;25629;-56
2023/12/05 04:34:36;;;;;;;62.43;29.65;;;;;;;-6.45;91.18;100536.56;1728894;82;25645;-56
2023/12/05 04:37:06;;;;;;;65.55;30.70;;;;;;;-6.42;91.24;100537.50;1729342;83;25603;-56
2023/12/05 04:39:32;;;;;;;69.35;33.05;;;;;;;-6.38;91.23;100534.81;1729005;83;27340;-55
2023/12/05 04:42:02;;;;;;;61.80;29.65;;;;;;;-6.36;91.24;100535.43;1729061;83;25572;-56
2023/12/05 04:44:29;;;;;;;61.58;30.05;;;;;;;-6.33;91.30;100529.79;1729097;83;25430;-55
2023/12/05 04:46:57;;;;;;;60.05;31.00;;;;;;;-6.30;91.33;100526.78;1728868;83;25601;-56
2023/12/05 04:49:26;;;;;;;66.12;29.92;;;;;;;-6.28;91.30;100526.08;1729305;83;25574;-54
2023/12/05 04:51:55;;;;;;;64.40;29.00;;;;;;;-6.26;91.30;100520.62;1729156;83;28307;-56
2023/12/05 04:54:23;;;;;;;60.78;31.68;;;;;;;-6.24;91.27;100520.73;1728787;83;25426;-56
2023/12/05 04:56:50;;;;;;;64.72;32.75;;;;;;;-6.21;91.25;100517.71;1649115;86;25693;-56
2023/12/05 04:59:19;;;;;;;56.33;30.75;;;;;;;-6.20;91.16;100520.67;1729026;83;25556;-57
2023/12/05 05:01:47;;;;;;;;;;;;;;;-6.18;91.08;100520.45;1731822;83;25643;-53
2023/12/05 05:04:16;;;;;;;54.23;29.30;;;;;;;-6.16;91.01;100516.31;1728940;83;28240;-55
2023/12/05 05:06:42;;;;;;;64.67;30.48;;;;;;;-6.17;90.93;100518.14;1649540;86;25606;-56
2023/12/05 05:09:11;;;;;;;57.58;28.57;;;;;;;-6.17;90.87;100509.44;1729110;83;25574;-56
2023/12/05 05:11:39;;;;;;;62.17;30.68;;;;;;;-6.20;90.80;100511.94;1707302;83;25990;-55
2023/12/05 05:14:05;;;;;;;54.65;26.52;;;;;;;-6.17;90.79;100516.02;1724366;83;25589;-57
2023/12/05 05:16:32;;;;;;;57.50;27.65;;;;;;;-6.19;90.72;100514.89;1724841;83;27667;-54
2023/12/05 05:19:00;;;;;;;60.20;28.98;;;;;;;-6.19;90.71;100513.58;1729221;83;26238;-55
2023/12/05 05:21:29;;;;;;;63.55;30.35;;;;;;;-6.18;90.71;100512.55;1729321;83;25700;-53
2023/12/05 05:23:56;;;;;;;56.88;29.18;;;;;;;-6.18;90.75;100512.55;1703060;83;25884;-55
2023/12/05 05:26:22;;;;;;;56.80;27.45;;;;;;;-6.18;90.71;100509.91;1729279;83;25450;-52
2023/12/05 05:28:49;;;;;;;57.53;27.45;;;;;;;-6.18;90.66;100505.96;1729208;83;27328;-55
2023/12/05 05:31:17;;;;;;;60.23;28.67;;;;;;;-6.18;90.63;100507.80;1729069;83;26255;-55
2023/12/05 05:33:44;;;;;;;62.55;28.62;;;;;;;-6.18;90.64;100507.80;1730849;82;25707;-53
2023/12/05 05:36:14;;;;;;;61.08;28.62;;;;;;;-6.18;90.60;100515.18;1734631;82;25956;-52
2023/12/05 05:38:44;;;;;;;61.50;28.40;;;;;;;-6.20;90.52;100515.88;1734816;82;25622;-54
2023/12/05 05:41:14;;;;;;;64.65;30.02;;;;;;;-6.18;90.50;100522.28;1734781;82;27220;-55
2023/12/05 05:43:43;;;;;;;58.70;29.02;;;;;;;-6.20;90.42;100518.03;1734605;82;25585;-53
2023/12/05 05:46:10;;;;;;;60.30;27.87;;;;;;;-6.20;90.39;100518.52;1734662;82;25576;-55
2023/12/05 05:48:43;;;;;;;60.33;29.85;;;;;;;-6.20;90.30;100514.09;1734808;82;25643;-55
2023/12/05 05:51:12;;;;;;;63.40;30.37;;;;;;;-6.21;90.24;100517.71;1734741;82;25570;-54
2023/12/05 05:53:42;;;;;;;63.68;28.05;;;;;;;-6.23;90.15;100515.78;1734671;82;27340;-56
2023/12/05 05:56:12;;;;;;;57.80;28.20;;;;;;;-6.24;90.14;100512.83;1734582;82;25790;-56
2023/12/05 05:58:39;;;;;;;61.73;29.75;;;;;;;-6.26;90.12;100504.83;1734724;82;25529;-54
2023/12/05 06:01:12;;;;;;;61.28;29.40;;;;;;;-6.26;90.22;100512.72;1734668;82;26183;-54
2023/12/05 06:03:38;;;;;;;57.15;28.12;;;;;;;-6.26;90.19;100511.41;1673177;85;25666;-52
2023/12/05 06:06:09;;;;;;;59.35;29.20;;;;;;;-6.27;90.12;100511.08;1661816;84;27321;-55
2023/12/05 06:08:36;;;;;;;63.05;29.40;;;;;;;-6.29;90.11;100516.54;1727099;83;25615;-51
2023/12/05 06:11:07;;;;;;;57.43;28.62;;;;;;;-6.30;90.10;100507.52;1727127;83;25596;-51
2023/12/05 06:13:36;;;;;;;55.03;27.65;;;;;;;-6.30;90.07;100514.09;1657101;85;25809;-51
2023/12/05 06:16:07;;;;;;;55.45;27.20;;;;;;;-6.32;90.02;100510.84;1694780;84;25486;-50
2023/12/05 06:18:33;;;;;;;62.58;28.80;;;;;;;-6.33;90.00;100502.63;1662990;84;28083;-52
2023/12/05 06:21:07;;;;;;;62.62;27.62;;;;;;;-6.34;90.03;100504.45;1656790;86;25728;-52
2023/12/05 06:23:34;;;;;;;54.05;28.07;;;;;;;-6.35;90.04;100504.64;1693802;84;25494;-50
2023/12/05 06:26:02;;;;;;;62.75;28.83;;;;;;;-6.36;90.13;100503.84;1693653;84;26051;-51
2023/12/05 06:28:32;;;;;;;49.83;23.37;;;;;;;-6.36;90.09;100503.84;1694919;84;25406;-51
2023/12/05 06:31:04;;;;;;;56.18;27.52;;;;;;;-6.37;90.09;100498.77;1656916;86;28185;-50
2023/12/05 06:33:31;;;;;;;61.08;30.57;;;;;;;-6.36;90.06;100499.89;1694401;84;25752;-54
2023/12/05 06:36:01;;;;;;;66.20;30.17;;;;;;;-6.39;89.99;100498.44;1694575;84;25641;-50
2023/12/05 06:38:27;;;;;;;60.08;30.35;;;;;;;-6.38;90.07;100497.96;1694758;84;25709;-51
2023/12/05 06:40:57;;;;;;;58.50;29.18;;;;;;;-6.37;90.08;100501.40;1694718;84;25418;-54
2023/12/05 06:43:25;;;;;;;64.45;30.12;;;;;;;-6.39;90.02;100502.39;1727098;83;27952;-51
2023/12/05 06:45:53;;;;;;;62.43;30.17;;;;;;;-6.40;89.99;100504.73;1657202;86;25598;-52
2023/12/05 06:48:19;;;;;;;63.38;30.40;;;;;;;-6.39;90.00;100507.66;1694716;84;25455;-54
2023/12/05 06:50:47;;;;;;;67.58;30.97;;;;;;;-6.39;90.01;100500.27;1694690;84;25591;-52
2023/12/05 06:53:16;;;;;;;66.83;33.17;;;;;;;-6.40;89.99;100502.61;1695075;84;25599;-51
2023/12/05 06:55:43;;;;;;;67.35;32.85;;;;;;;-6.41;89.96;100513.62;1727094;82;27679;-54
2023/12/05 06:58:15;;;;;;;68.72;33.28;;;;;;;-6.40;89.93;100516.58;1727038;83;25438;-51
2023/12/05 07:00:46;;;;;;;70.67;33.73;;;;;;;-6.41;89.97;100514.13;1727072;82;25487;-52
2023/12/05 07:03:15;;;;;;;68.67;35.03;;;;;;;-6.43;89.94;100502.98;1727061;83;25627;-51
2023/12/05 07:05:45;;;;;;;;;;;;;;;-6.39;90.01;100506.84;1707727;83;25429;-50
2023/12/05 07:08:17;;;;;;;68.97;33.10;;;;;;;-6.39;89.98;100504.22;1727157;82;27202;-51
2023/12/05 07:10:48;;;;;;;72.20;34.90;;;;;;;-6.40;90.01;100498.15;1737218;82;25462;-51
2023/12/05 07:13:18;;;;;;;76.80;35.28;;;;;;;-6.38;90.10;100490.06;1737362;81;25625;-52
2023/12/05 07:15:48;;;;;;;73.12;35.60;;;;;;;-6.36;90.15;100497.26;1737238;82;25683;-51
2023/12/05 07:18:15;;;;;;;77.08;36.73;;;;;;;-6.36;90.07;100486.73;1737287;82;25397;-50
2023/12/05 07:20:45;;;;;;;71.87;35.80;;;;;;;-6.33;90.07;100495.56;1737360;82;27975;-51
2023/12/05 07:23:12;;;;;;;74.58;33.83;;;;;;;-6.33;90.06;100494.25;1737265;82;25630;-51
2023/12/05 07:25:39;;;;;;;79.67;35.98;;;;;;;-6.33;89.99;100488.98;1727241;83;25410;-51
2023/12/05 07:28:06;;;;;;;72.25;33.38;;;;;;;-6.30;89.99;100496.50;1727115;83;25811;-52
2023/12/05 07:30:33;;;;;;;73.67;34.40;;;;;;;-6.28;90.01;100493.64;1701220;83;25603;-51
2023/12/05 07:32:59;;;;;;;70.70;34.40;;;;;;;-6.26;90.04;100494.29;1727140;83;27328;-51
2023/12/05 07:35:26;;;;;;;71.65;32.30;;;;;;;-6.24;90.02;100487.81;1726970;82;26042;-50
2023/12/05 07:37:54;;;;;;;73.22;34.95;;;;;;;-6.21;90.02;100491.89;1727147;83;25629;-50
2023/12/05 07:40:20;;;;;;;73.45;34.43;;;;;;;-6.17;90.12;100494.44;1737294;81;25969;-51
2023/12/05 07:42:47;;;;;;;69.30;34.08;;;;;;;-6.14;90.05;100493.25;1657156;86;25435;-50
2023/12/05 07:45:14;;;;;;;68.07;32.83;;;;;;;-6.11;90.00;100494.16;1693991;84;27269;-51
2023/12/05 07:47:43;;;;;;;68.30;34.10;;;;;;;-6.07;90.22;100488.31;1693624;84;25908;-53
2023/12/05 07:50:13;;;;;;;63.08;31.95;;;;;;;-6.01;90.37;100488.86;1694394;84;25642;-53
2023/12/05 07:52:40;;;;;;;64.58;32.30;;;;;;;-5.94;90.61;100484.92;1726635;82;25769;-52
2023/12/05 07:55:08;;;;;;;72.30;33.45;;;;;;;-5.85;90.77;100481.61;1656737;86;25635;-54
2023/12/05 07:57:35;;;;;;;71.47;33.55;;;;;;;-5.78;90.71;100475.86;1694238;84;27346;-52
2023/12/05 08:00:10;;;;;;;70.15;34.27;;;;;;;-5.68;90.73;100484.72;1726698;83;25445;-51
2023/12/05 08:02:35;;;;;;;79.27;37.38;;;;;;;-5.54;91.07;100480.30;1737133;81;25196;-51
2023/12/05 08:05:06;;;;;;;74.58;36.98;;;;;;;-5.34;91.46;100479.85;1737301;82;25631;-52
2023/12/05 08:07:32;;;;;;;74.42;37.30;;;;;;;-5.04;93.03;100479.48;1737521;82;25637;-50
2023/12/05 08:09:59;;;;;;;74.75;38.23;;;;;;;-4.69;94.45;100471.39;1727326;83;27841;-52
2023/12/05 08:12:25;;;;;;;71.75;36.80;;;;;;;-4.28;95.28;100466.88;1727166;83;25994;-52
2023/12/05 08:14:53;;;;;;;79.62;37.33;;;;;;;-3.90;95.33;100471.44;1727261;82;25564;-52
2023/12/05 08:17:21;;;;;;;77.15;37.17;;;;;;;-3.53;95.61;100467.73;1727128;83;25623;-55
2023/12/05 08:19:51;;;;;;;75.12;38.85;;;;;;;-3.16;95.48;100462.12;1727345;82;25439;-51
2023/12/05 08:22:17;;;;;;;74.37;38.42;;;;;;;-2.74;96.27;100462.42;1737406;82;27381;-53
2023/12/05 08:24:44;;;;;;;82.45;39.85;;;;;;;-2.20;97.75;100465.89;1737269;82;25614;-52
2023/12/05 08:27:13;;;;;;;72.60;36.77;;;;;;;-1.79;95.54;100465.73;1657250;85;25756;-55
2023/12/05 08:29:40;;;;;;;66.25;35.48;;;;;;;-1.31;96.73;100471.55;1694940;84;25640;-52
2023/12/05 08:32:07;;;;;;;71.40;36.08;;;;;;;-0.95;95.00;100465.30;1657243;86;25634;-51
2023/12/05 08:34:35;;;;;;;63.90;33.40;;;;;;;-0.65;91.04;100472.36;1694691;84;27988;-53
2023/12/05 08:37:03;;;;;;;67.70;35.03;;;;;;;-0.54;88.31;100479.27;1661678;86;26158;-52
2023/12/05 08:39:30;;;;;;;63.15;33.23;;;;;;;-0.25;89.37;100476.20;1734602;82;25446;-52
2023/12/05 08:41:59;;;;;;;59.98;32.78;;;;;;;0.20;89.76;100474.20;1734450;82;25424;-52
2023/12/05 08:44:28;;;;;;;59.53;32.95;;;;;;;0.68;88.25;100476.17;1734563;82;25465;-53
2023/12/05 08:46:55;;;;;;;56.30;30.65;;;;;;;0.87;86.72;100480.77;1734527;82;27344;-55
2023/12/05 08:49:23;;;;;;;63.92;33.63;;;;;;;1.28;86.35;100485.47;1734452;82;25469;-54
2023/12/05 08:51:53;;;;;;;85.60;41.15;;;;;;;1.57;83.27;100488.05;1734450;82;25600;-54
2023/12/05 08:54:20;;;;;;;62.83;33.00;;;;;;;1.70;83.35;100486.35;1734469;82;26410;-55
2023/12/05 08:56:47;;;;;;;59.30;32.45;;;;;;;2.04;82.26;100487.61;1699120;82;25580;-57
2023/12/05 08:59:13;;;;;;;59.65;33.38;;;;;;;2.37;82.15;100489.91;1734444;82;27696;-54
2023/12/05 09:01:40;;;;;;;57.27;31.82;;;;;;;2.65;81.32;100490.73;1734380;82;25409;-51
2023/12/05 09:04:08;;;;;;;61.37;32.95;;;;;;;3.07;81.00;100482.87;1734508;82;25778;-55
2023/12/05 09:06:35;;;;;;;60.48;33.10;;;;;;;3.42;80.28;100476.72;1734484;82;25625;-55
2023/12/05 09:09:01;;;;;;;58.13;32.42;;;;;;;3.71;79.07;100473.98;1734479;82;25651;-58
2023/12/05 09:11:28;;;;;;;55.45;32.70;;;;;;;3.98;78.06;100480.27;1734404;82;27326;-53
2023/12/05 09:13:54;;;;;;;58.35;32.88;;;;;;;4.20;75.31;100473.41;1734371;82;25601;-55
2023/12/05 09:16:23;;;;;;;52.95;30.35;;;;;;;4.27;72.95;100476.64;1734356;82;25458;-54
2023/12/05 09:18:49;;;;;;;51.92;30.55;;;;;;;4.34;73.06;100465.69;1734383;82;25518;-57
2023/12/05 09:21:18;;;;;;;57.80;34.08;;;;;;;4.36;72.64;100459.02;1734518;82;25470;-56
2023/12/05 09:23:44;;;;;;;58.25;32.50;;;;;;;4.47;72.05;100451.81;1734572;82;27781;-54
2023/12/05 09:26:16;;;;;;;56.05;30.82;;;;;;;4.76;72.70;100441.41;1734335;82;25431;-61
2023/12/05 09:28:46;;;;;;;56.37;31.50;;;;;;;5.00;69.58;100444.92;1734520;82;25670;-61
2023/12/05 09:31:15;;;;;;;52.55;29.90;;;;;;;4.99;69.39;100446.80;1734388;82;26397;-54
2023/12/05 09:33:43;;;;;;;54.75;31.25;;;;;;;5.03;68.38;100443.05;1734520;82;25575;-55
2023/12/05 09:36:12;;;;;;;50.80;28.87;;;;;;;5.31;68.76;100432.32;1728981;82;27924;-54
2023/12/05 09:38:39;;;;;;;52.98;32.55;;;;;;;5.56;66.83;100435.48;1727133;83;25388;-56
2023/12/05 09:41:10;;;;;;;45.60;27.90;;;;;;;5.72;67.09;100433.58;1727051;83;25398;-55
2023/12/05 09:43:40;;;;;;;56.65;31.20;;;;;;;5.93;66.10;100443.70;1657041;86;26064;-55
2023/12/05 09:46:12;;;;;;;53.20;31.37;;;;;;;5.83;64.40;100438.38;1694925;84;25560;-58
2023/12/05 09:48:44;;;;;;;57.33;30.97;;;;;;;5.94;64.78;100437.78;1694731;84;27423;-54
2023/12/05 09:51:14;;;;;;;54.35;33.55;;;;;;;6.15;65.17;100428.61;1726079;83;25612;-57
2023/12/05 09:53:46;;;;;;;49.20;29.12;;;;;;;6.60;65.36;100430.52;1737364;81;25396;-58
2023/12/05 09:56:14;;;;;;;52.43;30.15;;;;;;;6.56;61.55;100427.59;1657076;86;25672;-57
2023/12/05 09:58:47;;;;;;;49.08;29.75;;;;;;;6.27;60.38;100428.28;1692312;84;25493;-57
2023/12/05 10:01:19;;;;;;;52.67;29.80;;;;;;;6.06;59.32;100434.81;1727165;83;27672;-56
2023/12/05 10:03:58;;;;;;;49.03;29.20;;;;;;;6.07;60.94;100435.89;1737364;82;25566;-57
2023/12/05 10:06:30;;;;;;;52.23;31.15;;;;;;;6.29;61.01;100425.33;1727107;82;25624;-55
2023/12/05 10:09:00;;;;;;;51.02;30.48;;;;;;;6.47;61.32;100427.37;1737290;81;25947;-56
2023/12/05 10:11:32;;;;;;;50.20;30.55;;;;;;;6.78;60.90;100433.10;1727169;83;25415;-56
2023/12/05 10:13:59;;;;;;;59.58;32.23;;;;;;;7.07;61.12;100433.14;1727048;83;27333;-56
2023/12/05 10:16:29;;;;;;;50.58;30.65;;;;;;;7.45;61.58;100426.05;1726873;83;27139;-54
2023/12/05 10:18:57;;;;;;;48.58;30.00;;;;;;;7.65;58.56;100430.98;1737373;82;25630;-56
2023/12/05 10:21:23;;;;;;;49.35;30.02;;;;;;;7.67;57.46;100429.59;1727128;82;25982;-55
2023/12/05 10:23:52;;;;;;;50.05;29.80;;;;;;;7.74;57.63;100433.84;1727163;82;25617;-55
2023/12/05 10:26:18;;;;;;;55.15;30.65;;;;;;;7.74;57.50;100422.52;1727061;83;27046;-56
2023/12/05 10:28:53;;;;;;;62.60;37.28;;;;;;;7.79;56.85;100426.50;1727005;83;26002;-57
2023/12/05 10:31:20;;;;;;;66.50;41.18;;;;;;;7.67;56.16;100428.80;1727126;83;25576;-56
2023/12/05 10:33:53;;;;;;;45.65;29.65;;;;;;;7.67;56.70;100411.30;1727222;83;25643;-62
2023/12/05 10:36:19;;;;;;;48.13;29.32;;;;;;;7.72;57.22;100408.55;1732275;82;25856;-54
2023/12/05 10:38:47;;;;;;;54.00;31.97;;;;;;;7.72;55.53;100404.51;1732250;82;28310;-57
2023/12/05 10:41:29;;;;;;;51.92;31.75;;;;;;;7.58;55.59;100401.70;1732234;81;25604;-55
2023/12/05 10:43:57;;;;;;;51.70;30.77;;;;;;;7.43;54.26;100399.97;1747954;81;25635;-55
2023/12/05 10:46:28;;;;;;;57.55;32.53;;;;;;;7.48;55.84;100397.78;1731950;82;25743;-53
2023/12/05 10:48:56;;;;;;;52.23;32.40;;;;;;;8.12;56.53;100392.17;1732189;82;25612;-53
2023/12/05 10:51:27;;;;;;;48.75;31.37;;;;;;;8.79;55.68;100386.09;1731965;82;27842;-53
2023/12/05 10:53:55;;;;;;;48.13;30.45;;;;;;;9.11;54.45;100389.11;1733847;82;25438;-53
2023/12/05 10:56:28;;;;;;;48.38;30.23;;;;;;;9.38;54.62;100388.88;1732237;81;25648;-57
2023/12/05 10:59:00;;;;;;;55.60;30.27;;;;;;;9.53;54.13;100387.23;1671947;85;25665;-55
2023/12/05 11:01:34;;;;;;;52.08;30.37;;;;;;;9.59;52.17;100381.21;1731952;82;25442;-55
2023/12/05 11:04:10;;;;;;;58.87;33.38;;;;;;;9.57;51.30;100385.56;1732291;81;28098;-52
2023/12/05 11:06:38;;;;;;;64.92;39.05;;;;;;;9.64;52.48;100377.85;1732715;81;25535;-55
2023/12/05 11:09:08;;;;;;;105.47;54.85;;;;;;;9.73;50.10;100380.09;1732080;82;25656;-56
2023/12/05 11:11:41;;;;;;;67.47;39.53;;;;;;;9.76;51.83;100381.40;1732220;82;25539;-51
2023/12/05 11:14:14;;;;;;;103.70;60.45;;;;;;;9.99;51.19;100373.36;1732302;82;25622;-53
2023/12/05 11:16:49;;;;;;;74.50;45.75;;;;;;;10.00;51.36;100367.66;1732300;82;27334;-53
2023/12/05 11:19:49;;;;;;;74.15;47.75;;;;;;;10.06;50.85;100363.76;1731583;82;25584;-57